Blue Horizons Flying Club, Inc.

Radar AviationWeather DUATS TFRs Wunderground Accuweather Weather.com

alt : Radar

TAFs

KJXN 262340Z 2700/2724 01007KT P6SM BKN070
   FM270500 35008KT P6SM BKN060
   FM271000 32008KT P6SM SCT012 BKN020
   FM271600 35009KT P6SM FEW015 BKN030
KFWA 262328Z 2700/2724 36011KT P6SM FEW070
   FM270200 36006KT P6SM SCT070
   FM271500 34011KT P6SM BKN040
KCLE 262321Z 2700/2806 36012KT P6SM SKC
   FM270800 31009KT P6SM OVC050
   FM271300 33012KT P6SM VCSH OVC025
   FM271500 33010G20KT P6SM VCSH OVC025
   FM272000 36010KT P6SM OVC050
   FM280000 35008KT P6SM SKC
KTOL 262321Z 2700/2724 36012KT P6SM SCT070
   FM270400 01005KT P6SM OVC050
   FM271600 33010G20KT P6SM OVC025
   FM272000 36010KT P6SM OVC050
KFDY 262321Z 2700/2724 02010G15KT P6SM SCT060
   FM270100 04006KT P6SM SCT060
   FM270500 35005KT P6SM OVC050
   FM271500 33012KT P6SM OVC025
   FM272200 36010G15KT P6SM OVC050
KDTW 262320Z 2700/2806 36011KT P6SM SCT060
   FM270600 33005KT P6SM BKN050
   FM271000 35005KT P6SM OVC025
   FM271700 35011KT P6SM BKN040
   FM280000 03006KT P6SM BKN050

METARs

KJXN 262356Z 02010KT 10SM BKN070 13/M03 A2989 RMK AO2 SLP127 T01281028 10144 20117 56004
KDUH 262354Z AUTO 06004KT 10SM BKN070 13/M01 A2990 RMK AO2
KFWA 262354Z 35007KT 10SM FEW065 12/00 A2990 RMK AO2 SLP129 T01170000 10150 20117 53001
KDTW 262353Z 36007KT 10SM SCT070 12/M02 A2990 RMK AO2 SLP126 T01221017 10156 20122 53001 $
KFDY 262353Z AUTO 04008KT 10SM BKN070 12/M01 A2987 RMK AO2 SLP114 T01221011 10150 20122 53002
KTDZ 262353Z AUTO 05006KT 10SM OVC070 12/M01 A2990 RMK AO2 SLP127 T01171011 10150 20117 53006 TSNO
KTOL 262352Z 01014G17KT 10SM OVC070 13/M02 A2989 RMK AO2 SLP124 T01281022 10156 20128 53004
KCLE 262351Z 01013KT 10SM FEW065 08/M01 A2991 RMK AO2 SLP132 T00831006 10122 20083 53006

alt : Satellite

alt : TFRs